createdAt,value
2018-09-10T00:02:02.702Z,1.70
2018-09-10T00:04:31.681Z,1.43
2018-09-10T00:07:00.696Z,1.57
2018-09-10T00:09:29.681Z,1.60
2018-09-10T00:11:58.687Z,1.87
2018-09-10T00:14:27.697Z,1.70
2018-09-10T00:16:56.653Z,1.73
2018-09-10T00:19:25.706Z,1.60
2018-09-10T00:21:54.711Z,1.80
2018-09-10T00:24:24.003Z,1.80
2018-09-10T00:26:52.992Z,2.00
2018-09-10T00:29:21.995Z,1.50
2018-09-10T00:31:51.117Z,1.70
2018-09-10T00:34:20.225Z,2.10
2018-09-10T00:36:49.752Z,1.43
2018-09-10T00:39:18.720Z,1.70
2018-09-10T00:41:47.727Z,1.90
2018-09-10T00:44:16.749Z,1.50
2018-09-10T00:46:45.717Z,1.80
2018-09-10T00:49:14.697Z,1.20
2018-09-10T00:51:43.660Z,1.50
2018-09-10T00:54:13.003Z,1.67
2018-09-10T00:56:41.984Z,1.70
2018-09-10T00:59:10.972Z,1.83
2018-09-10T01:01:40.147Z,1.70
2018-09-10T01:04:09.173Z,1.70
2018-09-10T01:06:38.192Z,2.07
2018-09-10T01:09:08.857Z,1.60
2018-09-10T01:11:38.632Z,1.60
2018-09-10T01:14:08.149Z,1.60
2018-09-10T01:16:37.168Z,1.83
2018-09-10T01:19:06.209Z,1.80
2018-09-10T01:21:35.209Z,1.53
2018-09-10T01:24:04.240Z,1.73
2018-09-10T01:26:33.693Z,1.77
2018-09-10T01:29:02.656Z,1.80
2018-09-10T01:31:31.655Z,1.67
2018-09-10T01:34:06.151Z,1.50
2018-09-10T01:36:35.119Z,1.70
2018-09-10T01:39:05.280Z,1.70
2018-09-10T01:41:34.287Z,1.60
2018-09-10T01:44:03.411Z,1.80
2018-09-10T01:46:32.529Z,2.03
2018-09-10T01:49:01.544Z,1.90
2018-09-10T01:51:30.565Z,1.50
2018-09-10T01:54:00.138Z,1.37
2018-09-10T01:56:29.148Z,1.50
2018-09-10T01:58:58.114Z,1.37
2018-09-10T02:01:27.133Z,1.70
2018-09-10T02:03:56.166Z,1.60
2018-09-10T02:06:25.482Z,1.60
2018-09-10T02:08:54.456Z,1.60
2018-09-10T02:11:23.460Z,1.80
2018-09-10T02:13:52.497Z,1.57
2018-09-10T02:16:21.518Z,1.50
2018-09-10T02:18:50.558Z,1.67
2018-09-10T02:21:19.574Z,1.93
2018-09-10T02:23:48.860Z,2.27
2018-09-10T02:26:17.925Z,1.87
2018-09-10T02:28:46.914Z,1.90
2018-09-10T02:31:15.912Z,1.80
2018-09-10T02:33:44.893Z,1.60
2018-09-10T02:36:13.906Z,1.53
2018-09-10T02:38:42.963Z,1.83
2018-09-10T02:41:11.945Z,1.70
2018-09-10T02:43:40.932Z,1.60
2018-09-10T02:46:09.977Z,1.77
2018-09-10T02:48:39.409Z,1.57
2018-09-10T02:51:08.420Z,1.47
2018-09-10T02:53:37.525Z,1.53
2018-09-10T02:56:06.544Z,1.53
2018-09-10T02:58:35.521Z,1.40
2018-09-10T03:01:04.558Z,1.53
2018-09-10T03:03:33.550Z,1.30
2018-09-10T03:06:02.508Z,1.40
2018-09-10T03:08:31.573Z,1.50
2018-09-10T03:11:00.579Z,1.37
2018-09-10T03:13:29.617Z,2.10
2018-09-10T03:15:58.633Z,1.80
2018-09-10T03:18:27.666Z,1.60
2018-09-10T03:20:56.656Z,1.67
2018-09-10T03:23:25.665Z,1.73
2018-09-10T03:25:54.653Z,1.50
2018-09-10T03:28:23.638Z,2.00
2018-09-10T03:30:52.800Z,1.80
2018-09-10T03:33:21.845Z,1.73
2018-09-10T03:35:50.828Z,1.70
2018-09-10T03:38:20.236Z,2.27
2018-09-10T03:40:49.260Z,2.00
2018-09-10T03:43:18.247Z,1.93
2018-09-10T03:45:47.267Z,1.93
2018-09-10T03:48:16.324Z,1.80
2018-09-10T03:50:45.360Z,2.20
2018-09-10T03:53:14.396Z,1.90
2018-09-10T03:55:43.368Z,1.57
2018-09-10T03:58:12.495Z,1.80
2018-09-10T04:00:41.492Z,1.90
2018-09-10T04:03:10.501Z,2.23
2018-09-10T04:05:39.527Z,1.67
2018-09-10T04:08:08.575Z,1.70
2018-09-10T04:10:37.638Z,2.17
2018-09-10T04:13:06.708Z,1.60
2018-09-10T04:15:35.760Z,1.90
2018-09-10T04:18:04.840Z,1.80
2018-09-10T04:20:34.067Z,1.80
2018-09-10T04:23:03.049Z,1.93
2018-09-10T04:25:32.051Z,2.17
2018-09-10T04:28:01.308Z,1.80
2018-09-10T04:30:30.281Z,2.27
2018-09-10T04:32:59.266Z,1.70
2018-09-10T04:35:28.720Z,2.17
2018-09-10T04:37:57.837Z,1.93
2018-09-10T04:40:26.978Z,2.30
2018-09-10T04:42:55.990Z,1.70
2018-09-10T04:45:25.068Z,1.97
2018-09-10T04:47:54.112Z,2.17
2018-09-10T04:50:23.089Z,1.90
2018-09-10T04:52:52.129Z,2.00
2018-09-10T04:55:21.673Z,1.70
2018-09-10T04:57:50.709Z,1.90
2018-09-10T05:00:19.824Z,2.53
2018-09-10T05:02:48.807Z,2.00
2018-09-10T05:05:18.120Z,2.10
2018-09-10T05:07:47.099Z,1.97
2018-09-10T05:10:16.109Z,2.37
2018-09-10T05:12:45.149Z,2.30
2018-09-10T05:15:14.140Z,1.90
2018-09-10T05:17:43.193Z,2.20
2018-09-10T05:20:12.294Z,2.10
2018-09-10T05:22:41.685Z,2.40
2018-09-10T05:25:10.684Z,2.10
2018-09-10T05:27:39.720Z,2.30
2018-09-10T05:30:08.821Z,2.00
2018-09-10T05:32:37.821Z,1.97
2018-09-10T05:35:06.832Z,2.23
2018-09-10T05:37:35.879Z,2.27
2018-09-10T05:40:06.746Z,2.40
2018-09-10T05:42:35.833Z,2.10
2018-09-10T05:45:05.601Z,2.40
2018-09-10T05:47:34.712Z,2.20
2018-09-10T05:50:03.686Z,2.70
2018-09-10T05:52:32.684Z,2.77
2018-09-10T05:55:01.697Z,2.77
2018-09-10T05:57:30.752Z,2.37
2018-09-10T05:59:59.769Z,2.20
2018-09-10T06:02:28.788Z,2.37
2018-09-10T06:04:57.781Z,2.27
2018-09-10T06:07:27.079Z,2.17
2018-09-10T06:09:56.191Z,2.67
2018-09-10T06:12:25.211Z,2.40
2018-09-10T06:14:54.421Z,2.10
2018-09-10T06:17:23.409Z,2.10
2018-09-10T06:19:52.436Z,2.10
2018-09-10T06:22:21.901Z,2.00
2018-09-10T06:24:51.150Z,2.03
2018-09-10T06:27:20.340Z,2.10
2018-09-10T06:29:49.326Z,2.07
2018-09-10T06:32:18.361Z,2.27
2018-09-10T06:34:47.393Z,2.37
2018-09-10T06:37:16.454Z,2.30
2018-09-10T06:39:45.415Z,2.37
2018-09-10T06:42:14.517Z,2.60
2018-09-10T06:44:43.714Z,2.17
2018-09-10T06:47:12.688Z,2.77
2018-09-10T06:49:41.739Z,2.50
2018-09-10T06:52:10.847Z,2.23
2018-09-10T06:54:39.864Z,2.20
2018-09-10T06:57:08.860Z,2.00
2018-09-10T06:59:37.872Z,2.23
2018-09-10T07:02:06.976Z,2.70
2018-09-10T07:04:35.988Z,2.57
2018-09-10T07:07:05.009Z,2.60
2018-09-10T07:09:34.009Z,2.83
2018-09-10T07:12:03.004Z,2.50
2018-09-10T07:14:32.093Z,2.83
2018-09-10T07:17:01.520Z,2.83
2018-09-10T07:19:30.479Z,2.63
2018-09-10T07:21:59.488Z,3.43
2018-09-10T07:24:28.836Z,3.30
2018-09-10T07:26:58.820Z,2.80
2018-09-10T07:29:27.837Z,3.87
2018-09-10T07:31:56.902Z,3.20
2018-09-10T07:34:25.937Z,3.33
2018-09-10T07:36:54.929Z,3.30
2018-09-10T07:39:24.021Z,3.40
2018-09-10T07:44:32.273Z,3.53
2018-09-10T07:47:01.267Z,3.47
2018-09-10T07:49:30.304Z,3.40
2018-09-10T07:51:59.396Z,3.30
2018-09-10T07:54:28.437Z,3.15
2018-09-10T07:56:57.512Z,3.65
2018-09-10T07:59:26.484Z,3.85
2018-09-10T08:01:55.731Z,3.85
2018-09-10T08:04:25.030Z,4.08
2018-09-10T08:06:54.009Z,3.83
2018-09-10T08:09:23.108Z,3.50
2018-09-10T08:11:52.099Z,3.85
2018-09-10T08:14:21.654Z,3.65
2018-09-10T08:16:50.729Z,3.40
2018-09-10T08:19:19.808Z,3.30
2018-09-10T08:21:48.800Z,3.40
2018-09-10T08:24:17.912Z,3.00
2018-09-10T08:26:46.826Z,2.90
2018-09-10T08:29:15.821Z,2.90
2018-09-10T08:31:44.824Z,3.00
2018-09-10T08:34:13.853Z,3.08
2018-09-10T08:36:42.899Z,3.10
2018-09-10T08:39:11.920Z,3.17
2018-09-10T08:41:40.923Z,3.87
2018-09-10T08:44:10.147Z,3.47
2018-09-10T08:46:39.129Z,3.33
2018-09-10T08:49:08.177Z,3.80
2018-09-10T08:51:37.249Z,3.20
2018-09-10T08:54:06.301Z,3.05
2018-09-10T08:56:35.272Z,3.33
2018-09-10T08:59:04.272Z,3.10
2018-09-10T09:01:33.280Z,2.92
2018-09-10T09:04:02.276Z,3.10
2018-09-10T09:06:31.476Z,3.22
2018-09-10T09:09:00.423Z,2.98
2018-09-10T09:11:29.456Z,2.83
2018-09-10T09:13:58.462Z,2.50
2018-09-10T09:16:27.484Z,3.15
2018-09-10T09:18:56.557Z,2.58
2018-09-10T09:21:25.961Z,3.20
2018-09-10T09:23:55.252Z,3.00
2018-09-10T09:26:24.697Z,2.77
2018-09-10T09:28:53.688Z,2.70
2018-09-10T09:31:22.647Z,2.80
2018-09-10T09:33:51.674Z,2.87
2018-09-10T09:36:26.312Z,2.70
2018-09-10T09:39:00.656Z,2.45
2018-09-10T09:41:35.138Z,2.72
2018-09-10T09:45:09.175Z,3.02
2018-09-10T09:47:38.341Z,3.20
2018-09-10T09:50:08.114Z,2.98
2018-09-10T09:52:37.088Z,3.30
2018-09-10T09:55:06.257Z,3.37
2018-09-10T09:57:35.608Z,3.20
2018-09-10T10:00:04.751Z,3.45
2018-09-10T10:02:39.589Z,3.33
2018-09-10T10:05:08.600Z,4.12
2018-09-10T10:07:37.607Z,3.00
2018-09-10T10:10:07.003Z,3.02
2018-09-10T10:12:35.934Z,3.50
2018-09-10T10:15:05.034Z,3.02
2018-09-10T10:17:34.081Z,3.27
2018-09-10T10:20:03.075Z,3.10
2018-09-10T10:22:32.159Z,3.87
2018-09-10T10:25:01.165Z,3.92
2018-09-10T10:27:30.183Z,3.50
2018-09-10T10:29:59.177Z,2.40
2018-09-10T10:32:28.288Z,3.70
2018-09-10T10:34:57.300Z,3.58
2018-09-10T10:37:26.308Z,3.72
2018-09-10T10:39:55.596Z,3.25
2018-09-10T10:42:24.617Z,3.30
2018-09-10T10:44:53.730Z,3.33
2018-09-10T10:47:22.771Z,3.50
2018-09-10T10:49:51.756Z,3.12
2018-09-10T10:52:20.796Z,3.47
2018-09-10T10:54:49.789Z,3.37
2018-09-10T10:57:18.805Z,3.40
2018-09-10T10:59:47.825Z,3.40
2018-09-10T11:02:16.796Z,3.02
2018-09-10T11:04:45.836Z,3.52
2018-09-10T11:07:14.890Z,3.40
2018-09-10T11:09:43.904Z,3.15
2018-09-10T11:12:13.188Z,2.92
2018-09-10T11:14:42.155Z,3.10
2018-09-10T11:17:11.141Z,2.72
2018-09-10T11:19:40.223Z,2.70
2018-09-10T11:22:09.255Z,2.55
2018-09-10T11:24:38.243Z,2.83
2018-09-10T11:27:07.223Z,2.83
2018-09-10T11:29:36.256Z,2.52
2018-09-10T11:32:05.263Z,2.92
2018-09-10T11:34:34.266Z,3.08
2018-09-10T11:37:03.261Z,2.60
2018-09-10T11:39:32.301Z,2.80
2018-09-10T11:42:01.336Z,2.72
2018-09-10T11:44:30.389Z,2.72
2018-09-10T11:46:59.403Z,2.50
2018-09-10T11:49:28.674Z,2.42
2018-09-10T11:51:57.722Z,2.85
2018-09-10T11:54:27.082Z,2.70
2018-09-10T11:56:56.330Z,2.90
2018-09-10T11:59:25.454Z,2.67
2018-09-10T12:01:54.511Z,3.35
2018-09-10T12:04:23.822Z,3.50
2018-09-10T12:06:52.861Z,3.30
2018-09-10T12:09:21.852Z,3.50
2018-09-10T12:11:50.893Z,2.77
2018-09-10T12:14:20.018Z,3.80
2018-09-10T12:16:49.065Z,4.22
2018-09-10T12:19:18.035Z,4.25
2018-09-10T12:21:47.036Z,4.37
2018-09-10T12:24:16.061Z,5.28
2018-09-10T12:26:45.115Z,4.30
2018-09-10T12:29:14.052Z,5.30
2018-09-10T12:31:43.092Z,4.55
2018-09-10T12:34:12.080Z,4.97
2018-09-10T12:36:41.156Z,4.20
2018-09-10T12:39:11.291Z,4.03
2018-09-10T12:41:40.699Z,5.05
2018-09-10T12:44:09.725Z,4.83
2018-09-10T12:46:38.702Z,4.70
2018-09-10T12:49:08.028Z,4.33
2018-09-10T12:51:37.021Z,4.47
2018-09-10T12:54:06.033Z,4.70
2018-09-10T12:56:35.093Z,3.87
2018-09-10T12:59:04.080Z,3.77
2018-09-10T13:01:33.381Z,3.17
2018-09-10T13:04:02.359Z,3.72
2018-09-10T13:06:31.345Z,3.62
2018-09-10T13:09:00.382Z,4.00
2018-09-10T13:11:29.409Z,4.22
2018-09-10T13:13:58.383Z,4.08
2018-09-10T13:16:27.432Z,3.52
2018-09-10T13:18:56.453Z,3.75
2018-09-10T13:21:25.461Z,4.00
2018-09-10T13:23:54.544Z,3.92
2018-09-10T13:26:23.608Z,3.60
2018-09-10T13:28:52.867Z,3.60
2018-09-10T13:31:22.180Z,3.12
2018-09-10T13:33:51.473Z,3.62
2018-09-10T13:36:20.580Z,3.50
2018-09-10T13:38:49.725Z,3.90
2018-09-10T13:41:18.698Z,3.42
2018-09-10T13:43:47.908Z,3.30
2018-09-10T13:46:16.901Z,3.90
2018-09-10T13:48:46.091Z,4.15
2018-09-10T13:51:15.128Z,3.95
2018-09-10T13:53:44.128Z,3.92
2018-09-10T13:56:13.464Z,4.10
2018-09-10T13:58:42.488Z,4.03
2018-09-10T14:01:11.452Z,3.77
2018-09-10T14:03:40.490Z,4.53
2018-09-10T14:06:09.496Z,4.45
2018-09-10T14:08:38.577Z,4.10
2018-09-10T14:11:07.605Z,4.08
2018-09-10T14:13:36.572Z,4.40
2018-09-10T14:16:05.651Z,4.42
2018-09-10T14:18:34.616Z,4.70
2018-09-10T14:21:03.616Z,4.35
2018-09-10T14:23:32.644Z,4.50
2018-09-10T14:26:01.983Z,4.10
2018-09-10T14:28:31.068Z,4.25
2018-09-10T14:31:00.096Z,4.25
2018-09-10T14:33:29.152Z,3.98
2018-09-10T14:35:58.505Z,3.90
2018-09-10T14:38:27.630Z,4.37
2018-09-10T14:40:56.719Z,4.47
2018-09-10T14:43:26.161Z,4.53
2018-09-10T14:45:55.272Z,3.83
2018-09-10T14:48:24.267Z,3.40
2018-09-10T14:50:53.308Z,4.28
2018-09-10T14:53:22.332Z,3.72
2018-09-10T14:55:51.364Z,3.47
2018-09-10T14:58:20.423Z,3.55
2018-09-10T15:00:49.421Z,3.70
2018-09-10T15:03:18.424Z,3.58
2018-09-10T15:05:47.829Z,2.95
2018-09-10T15:08:16.776Z,3.02
2018-09-10T15:10:45.797Z,3.10
2018-09-10T15:13:14.923Z,3.53
2018-09-10T15:15:43.971Z,3.75
2018-09-10T15:18:13.001Z,3.15
2018-09-10T15:20:42.147Z,3.22
2018-09-10T15:23:11.196Z,2.80
2018-09-10T15:25:40.468Z,3.40
2018-09-10T15:28:09.436Z,3.67
2018-09-10T15:30:38.488Z,3.30
2018-09-10T15:33:07.528Z,2.70
2018-09-10T15:40:24.944Z,2.80
2018-09-10T15:42:53.981Z,3.10
2018-09-10T15:45:23.109Z,3.05
2018-09-10T15:47:52.209Z,3.10
2018-09-10T15:50:21.958Z,3.20
2018-09-10T15:52:50.956Z,2.90
2018-09-10T15:55:20.037Z,3.12
2018-09-10T15:57:49.336Z,2.75
2018-09-10T16:00:18.331Z,2.67
2018-09-10T16:02:54.136Z,3.10
2018-09-10T16:05:23.261Z,2.85
2018-09-10T16:07:52.281Z,2.45
2018-09-10T16:10:21.312Z,3.02
2018-09-10T16:12:50.333Z,3.20
2018-09-10T16:15:19.376Z,3.37
2018-09-10T16:17:48.431Z,3.08
2018-09-10T16:20:17.375Z,2.90
2018-09-10T16:22:46.500Z,3.03
2018-09-10T16:25:15.488Z,3.12
2018-09-10T16:27:44.472Z,3.20
2018-09-10T16:30:13.612Z,3.02
2018-09-10T16:32:42.598Z,3.90
2018-09-10T16:35:11.577Z,3.67
2018-09-10T16:37:40.735Z,3.60
2018-09-10T16:40:10.196Z,3.70
2018-09-10T16:42:39.270Z,3.52
2018-09-10T16:45:08.477Z,3.57
2018-09-10T16:47:37.450Z,3.42
2018-09-10T16:50:06.665Z,3.60
2018-09-10T16:52:35.676Z,3.93
2018-09-10T16:55:04.876Z,3.30
2018-09-10T16:57:33.864Z,3.60
2018-09-10T17:00:02.913Z,3.53
2018-09-10T17:02:32.121Z,4.07
2018-09-10T17:05:01.151Z,3.80
2018-09-10T17:07:30.180Z,3.43
2018-09-10T17:09:59.247Z,3.00
2018-09-10T17:12:28.277Z,3.40
2018-09-10T17:14:57.270Z,3.47
2018-09-10T17:17:26.324Z,3.03
2018-09-10T17:19:55.333Z,3.13
2018-09-10T17:22:24.387Z,3.00
2018-09-10T17:24:53.447Z,2.70
2018-09-10T17:27:22.509Z,3.43
2018-09-10T17:29:51.523Z,3.03
2018-09-10T17:32:20.829Z,2.83
2018-09-10T17:34:49.871Z,2.97
2018-09-10T17:37:18.844Z,3.30
2018-09-10T17:39:47.847Z,3.27
2018-09-10T17:42:16.848Z,3.07
2018-09-10T17:44:45.821Z,3.17
2018-09-10T17:47:14.943Z,2.97
2018-09-10T17:49:43.815Z,3.17
2018-09-10T17:52:12.820Z,3.30
2018-09-10T17:54:41.828Z,3.40
2018-09-10T17:57:10.858Z,3.17
2018-09-10T17:59:39.892Z,3.30
2018-09-10T18:02:08.984Z,3.27
2018-09-10T18:04:38.020Z,3.50
2018-09-10T18:07:07.133Z,3.30
2018-09-10T18:09:36.115Z,3.47
2018-09-10T18:12:05.136Z,3.67
2018-09-10T18:14:34.153Z,3.50
2018-09-10T18:17:03.145Z,3.20
2018-09-10T18:19:32.222Z,3.40
2018-09-10T18:22:01.261Z,3.33
2018-09-10T18:24:30.255Z,3.57
2018-09-10T18:26:59.391Z,3.60
2018-09-10T18:29:28.360Z,3.87
2018-09-10T18:31:57.340Z,3.60
2018-09-10T18:34:26.371Z,3.33
2018-09-10T18:36:55.388Z,3.03
2018-09-10T18:39:24.435Z,3.03
2018-09-10T18:41:53.509Z,3.87
2018-09-10T18:44:22.519Z,3.43
2018-09-10T18:46:51.632Z,3.40
2018-09-10T18:49:20.637Z,3.73
2018-09-10T18:51:49.832Z,3.67
2018-09-10T18:54:18.798Z,3.30
2018-09-10T18:56:47.862Z,3.00
2018-09-10T18:59:16.836Z,3.90
2018-09-10T19:01:45.848Z,3.90
2018-09-10T19:04:15.074Z,3.97
2018-09-10T19:06:44.060Z,3.63
2018-09-10T19:09:13.048Z,3.47
2018-09-10T19:11:42.120Z,4.13
2018-09-10T19:14:11.200Z,5.73
2018-09-10T19:16:40.186Z,4.73
2018-09-10T19:19:09.189Z,4.50
2018-09-10T19:21:38.277Z,4.73
2018-09-10T19:24:07.441Z,3.17
2018-09-10T19:26:36.654Z,3.57
2018-09-10T19:29:05.629Z,4.27
2018-09-10T19:31:34.645Z,4.40
2018-09-10T19:34:03.757Z,3.90
2018-09-10T19:36:32.889Z,4.00
2018-09-10T19:39:01.925Z,3.97
2018-09-10T19:41:30.961Z,3.73
2018-09-10T19:44:00.082Z,3.10
2018-09-10T19:46:29.087Z,3.87
2018-09-10T19:48:58.113Z,3.70
2018-09-10T19:51:27.533Z,4.53
2018-09-10T19:53:56.521Z,3.87
2018-09-10T19:56:25.565Z,3.33
2018-09-10T19:58:54.628Z,3.77
2018-09-10T20:01:23.814Z,3.80
2018-09-10T20:03:52.969Z,3.80
2018-09-10T20:06:22.020Z,3.80
2018-09-10T20:08:51.089Z,3.67
2018-09-10T20:11:20.097Z,3.60
2018-09-10T20:13:49.137Z,4.57
2018-09-10T20:16:18.140Z,3.50
2018-09-10T20:18:47.171Z,3.80
2018-09-10T20:21:16.293Z,4.53
2018-09-10T20:23:45.341Z,3.93
2018-09-10T20:26:14.554Z,4.03
2018-09-10T20:28:43.599Z,3.90
2018-09-10T20:31:12.944Z,4.00
2018-09-10T20:33:47.314Z,4.10
2018-09-10T20:36:16.425Z,4.17
2018-09-10T20:38:45.527Z,4.30
2018-09-10T20:41:14.621Z,4.77
2018-09-10T20:43:43.669Z,4.53
2018-09-10T20:46:12.718Z,4.33
2018-09-10T20:48:41.729Z,4.17
2018-09-10T20:51:10.786Z,4.57
2018-09-10T20:53:39.876Z,4.43
2018-09-10T20:56:08.941Z,4.30
2018-09-10T20:58:37.995Z,4.50
2018-09-10T21:01:07.019Z,3.80
2018-09-10T21:03:36.115Z,4.00
2018-09-10T21:06:05.889Z,4.70
2018-09-10T21:08:34.908Z,3.97
2018-09-10T21:11:03.981Z,4.07
2018-09-10T21:13:33.065Z,4.23
2018-09-10T21:16:02.161Z,4.27
2018-09-10T21:18:31.189Z,4.37
2018-09-10T21:21:00.241Z,4.53
2018-09-10T21:23:29.235Z,4.33
2018-09-10T21:25:58.285Z,3.80
2018-09-10T21:28:27.308Z,4.20
2018-09-10T21:30:56.445Z,5.07
2018-09-10T21:33:28.564Z,4.00
2018-09-10T21:35:57.898Z,4.10
2018-09-10T21:38:26.932Z,4.30
2018-09-10T21:40:55.985Z,4.60
2018-09-10T21:43:25.323Z,4.23
2018-09-10T21:45:54.340Z,3.80
2018-09-10T21:48:23.446Z,3.93
2018-09-10T21:50:52.676Z,4.13
2018-09-10T21:53:21.809Z,4.20
2018-09-10T21:55:50.848Z,4.10
2018-09-10T21:58:19.899Z,3.83
2018-09-10T22:00:54.276Z,3.83
2018-09-10T22:03:23.376Z,4.27
2018-09-10T22:05:52.897Z,4.13
2018-09-10T22:08:22.002Z,4.47
2018-09-10T22:10:51.240Z,3.77
2018-09-10T22:13:21.157Z,4.20
2018-09-10T22:15:50.182Z,4.10
2018-09-10T22:18:19.208Z,3.80
2018-09-10T22:20:48.556Z,4.03
2018-09-10T22:23:17.661Z,3.70
2018-09-10T22:25:46.745Z,4.23
2018-09-10T22:28:15.789Z,4.53
2018-09-10T22:30:45.873Z,3.90
2018-09-10T22:33:14.966Z,3.90
2018-09-10T22:35:43.976Z,3.97
2018-09-10T22:38:13.024Z,4.07
2018-09-10T22:40:42.176Z,3.53
2018-09-10T22:43:11.183Z,3.80
2018-09-10T22:45:40.527Z,3.80
2018-09-10T22:48:09.531Z,4.30
2018-09-10T22:50:38.520Z,4.13
2018-09-10T22:53:07.576Z,3.77
2018-09-10T22:55:36.593Z,3.83
2018-09-10T22:58:05.713Z,3.93
2018-09-10T23:00:34.783Z,4.07
2018-09-10T23:03:03.834Z,4.00
2018-09-10T23:05:33.448Z,3.43
2018-09-10T23:08:02.508Z,3.60
2018-09-10T23:10:31.508Z,3.13
2018-09-10T23:13:00.823Z,3.40
2018-09-10T23:15:29.866Z,3.50
2018-09-10T23:17:58.873Z,3.13
2018-09-10T23:20:27.949Z,3.07
2018-09-10T23:22:56.958Z,3.53
2018-09-10T23:25:26.260Z,3.63
2018-09-10T23:27:55.268Z,3.63
2018-09-10T23:30:24.333Z,3.37
2018-09-10T23:32:53.433Z,3.20
2018-09-10T23:35:22.660Z,3.10
2018-09-10T23:37:51.784Z,3.27
2018-09-10T23:40:20.878Z,2.80
2018-09-10T23:42:50.244Z,2.80
2018-09-10T23:45:19.813Z,2.77
2018-09-10T23:47:48.861Z,3.20
2018-09-10T23:50:17.880Z,3.43
2018-09-10T23:52:47.080Z,3.20
2018-09-10T23:55:16.117Z,2.90
2018-09-10T23:57:45.388Z,2.87
